Time;durP1;ratioP1;P1;durP2;ratioP2;P2;SDS_P1;SDS_P2;PMS_P1;PMS_P2;Temp;Humidity;BMP_temperature;BMP_pressure;BME280_temperature;BME280_humidity;BME280_pressure;Samples;Min_cycle;Max_cycle;Signal;HPM_P1;HPM_P2
2022/06/23 00:01:15;;;;;;;4.88;4.30;;;;;;;;;;5028696;28;20231;-58
2022/06/23 00:03:42;;;;;;;8.40;4.25;;;;;;;;;;5027589;28;20220;-58
2022/06/23 00:06:19;;;;;;;7.22;4.35;;;;;;;;;;5027788;28;20200;-58
2022/06/23 00:08:47;;;;;;;5.63;3.97;;;;;;;;;;5028681;28;20248;-58
2022/06/23 00:11:20;;;;;;;4.93;4.05;;;;;;;;;;5028850;28;20224;-58
2022/06/23 00:13:47;;;;;;;11.93;4.32;;;;;;;;;;5026564;28;20247;-58
2022/06/23 00:16:19;;;;;;;7.63;3.92;;;;;;;;;;5027638;28;20217;-57
2022/06/23 00:18:46;;;;;;;6.97;4.40;;;;;;;;;;5028183;28;20204;-58
2022/06/23 00:21:15;;;;;;;4.43;4.00;;;;;;;;;;5027513;28;20196;-57
2022/06/23 00:23:44;;;;;;;3.95;3.75;;;;;;;;;;5028740;28;20204;-57
2022/06/23 00:26:14;;;;;;;5.63;4.13;;;;;;;;;;5028502;28;20293;-58
2022/06/23 00:28:43;;;;;;;6.72;3.63;;;;;;;;;;5029037;28;20211;-58
2022/06/23 00:31:22;;;;;;;7.88;4.20;;;;;;;;;;5027542;28;20235;-58
2022/06/23 00:33:50;;;;;;;5.30;4.03;;;;;;;;;;5026205;28;20219;-58
2022/06/23 00:36:17;;;;;;;5.22;4.65;;;;;;;;;;5027821;28;20205;-57
2022/06/23 00:38:45;;;;;;;6.47;4.68;;;;;;;;;;5027617;28;20196;-57
2022/06/23 00:41:17;;;;;;;9.00;4.95;;;;;;;;;;5028756;28;20623;-57
2022/06/23 00:43:46;;;;;;;6.75;4.47;;;;;;;;;;5024477;28;20595;-58
2022/06/23 00:46:19;;;;;;;7.45;4.63;;;;;;;;;;5027500;28;20235;-58
2022/06/23 00:48:48;;;;;;;9.13;5.13;;;;;;;;;;5026614;28;20574;-57
2022/06/23 00:51:18;;;;;;;7.40;4.95;;;;;;;;;;5025581;28;20274;-57
2022/06/23 00:53:48;;;;;;;4.65;4.32;;;;;;;;;;5027273;28;20497;-57
2022/06/23 00:56:28;;;;;;;10.15;5.55;;;;;;;;;;5025924;28;20201;-57
2022/06/23 00:58:58;;;;;;;6.82;4.85;;;;;;;;;;5024971;28;20206;-57
2022/06/23 01:01:27;;;;;;;7.25;4.80;;;;;;;;;;5025363;28;20197;-57
2022/06/23 01:03:58;;;;;;;8.18;5.40;;;;;;;;;;5022406;28;20638;-57
2022/06/23 01:06:28;;;;;;;9.35;4.88;;;;;;;;;;5015971;28;20258;-57
2022/06/23 01:08:57;;;;;;;7.78;5.22;;;;;;;;;;5025718;28;20215;-58
2022/06/23 01:11:28;;;;;;;7.43;4.88;;;;;;;;;;5026490;28;20255;-57
2022/06/23 01:13:59;;;;;;;10.82;5.95;;;;;;;;;;5025702;28;20269;-57
2022/06/23 01:16:28;;;;;;;5.68;4.40;;;;;;;;;;5025616;28;20221;-57
2022/06/23 01:18:59;;;;;;;10.48;6.18;;;;;;;;;;5026660;28;20205;-57
2022/06/23 01:21:29;;;;;;;10.27;5.90;;;;;;;;;;5030468;28;20196;-57
2022/06/23 01:24:05;;;;;;;7.57;6.22;;;;;;;;;;5028612;28;20756;-57
2022/06/23 01:26:40;;;;;;;11.02;5.88;;;;;;;;;;5030122;28;20247;-57
2022/06/23 01:29:11;;;;;;;10.48;5.82;;;;;;;;;;5030703;28;20204;-57
2022/06/23 01:31:42;;;;;;;6.80;6.05;;;;;;;;;;5030988;28;20253;-57
2022/06/23 01:34:14;;;;;;;13.15;6.03;;;;;;;;;;5028606;28;20286;-57
2022/06/23 01:36:44;;;;;;;15.43;6.93;;;;;;;;;;5029796;28;20220;-57
2022/06/23 01:39:15;;;;;;;9.98;6.38;;;;;;;;;;5029534;28;20212;-57
2022/06/23 01:41:45;;;;;;;7.93;6.00;;;;;;;;;;5030485;28;20204;-57
2022/06/23 01:44:17;;;;;;;10.52;6.40;;;;;;;;;;5029568;28;20254;-58
2022/06/23 01:46:45;;;;;;;8.77;6.20;;;;;;;;;;5030065;28;20201;-58
2022/06/23 01:49:15;;;;;;;10.65;6.55;;;;;;;;;;5028130;28;20208;-58
2022/06/23 01:51:43;;;;;;;6.10;5.35;;;;;;;;;;5028109;28;20275;-58
2022/06/23 01:54:13;;;;;;;8.15;5.68;;;;;;;;;;5029378;28;20666;-58
2022/06/23 01:56:52;;;;;;;6.82;5.90;;;;;;;;;;5029964;28;20698;-58
2022/06/23 01:59:32;;;;;;;6.15;5.43;;;;;;;;;;5030161;28;20212;-58
2022/06/23 02:02:03;;;;;;;7.93;5.32;;;;;;;;;;5026844;28;20576;-57
2022/06/23 02:04:33;;;;;;;8.45;5.82;;;;;;;;;;5029758;28;20208;-57
2022/06/23 02:07:05;;;;;;;7.35;5.78;;;;;;;;;;5028772;28;20200;-57
2022/06/23 02:09:34;;;;;;;7.28;5.40;;;;;;;;;;5019227;28;20869;-57
2022/06/23 02:12:01;;;;;;;7.28;4.80;;;;;;;;;;5029966;28;20730;-58
2022/06/23 02:14:41;;;;;;;8.75;5.50;;;;;;;;;;5029476;28;20230;-57
2022/06/23 02:17:12;;;;;;;8.80;5.53;;;;;;;;;;5030104;28;20303;-57
2022/06/23 02:19:41;;;;;;;5.60;5.10;;;;;;;;;;5028847;28;20227;-57
2022/06/23 02:22:13;;;;;;;9.98;5.10;;;;;;;;;;5029281;28;20302;-57
2022/06/23 02:24:46;;;;;;;10.48;5.28;;;;;;;;;;5026415;28;20215;-57
2022/06/23 02:27:16;;;;;;;7.38;5.20;;;;;;;;;;5027863;28;20263;-57
2022/06/23 02:29:47;;;;;;;6.72;5.45;;;;;;;;;;5029764;28;20219;-58
2022/06/23 02:32:16;;;;;;;7.65;5.28;;;;;;;;;;5029627;28;20220;-57
2022/06/23 02:34:46;;;;;;;8.30;5.22;;;;;;;;;;5030956;28;20692;-57
2022/06/23 02:37:32;;;;;;;7.53;5.85;;;;;;;;;;5029625;28;20606;-57
2022/06/23 02:40:00;;;;;;;6.72;4.95;;;;;;;;;;5028521;28;20296;-57
2022/06/23 02:42:29;;;;;;;6.18;5.38;;;;;;;;;;5028895;28;20579;-57
2022/06/23 02:45:03;;;;;;;9.40;5.38;;;;;;;;;;5027076;28;20226;-57
2022/06/23 02:47:39;;;;;;;12.00;5.68;;;;;;;;;;5028394;28;20631;-58
2022/06/23 02:50:15;;;;;;;6.10;5.53;;;;;;;;;;5028085;28;20220;-59
2022/06/23 02:52:49;;;;;;;5.43;4.78;;;;;;;;;;5027056;28;20228;-59
2022/06/23 02:55:21;;;;;;;7.13;5.68;;;;;;;;;;5027642;28;20259;-59
2022/06/23 02:57:51;;;;;;;5.63;4.95;;;;;;;;;;5027898;28;20208;-59
2022/06/23 03:00:23;;;;;;;5.40;4.82;;;;;;;;;;5026902;28;20216;-59
2022/06/23 03:02:54;;;;;;;6.65;5.05;;;;;;;;;;5028177;28;20662;-59
2022/06/23 03:05:27;;;;;;;9.27;5.00;;;;;;;;;;5028441;28;20208;-59
2022/06/23 03:07:58;;;;;;;7.78;5.65;;;;;;;;;;5028240;28;20216;-60
2022/06/23 03:10:28;;;;;;;8.25;5.10;;;;;;;;;;5028281;28;20207;-59
2022/06/23 03:12:58;;;;;;;9.45;5.50;;;;;;;;;;5028208;28;20228;-59
2022/06/23 03:15:29;;;;;;;6.28;4.80;;;;;;;;;;5029044;28;20871;-59
2022/06/23 03:17:59;;;;;;;8.10;5.22;;;;;;;;;;5028360;28;20211;-59
2022/06/23 03:20:34;;;;;;;7.22;5.03;;;;;;;;;;5028751;28;20212;-59
2022/06/23 03:23:03;;;;;;;6.03;5.13;;;;;;;;;;5029158;28;20196;-59
2022/06/23 03:25:33;;;;;;;8.43;5.30;;;;;;;;;;5028370;28;20706;-59
2022/06/23 03:28:01;;;;;;;7.05;5.40;;;;;;;;;;5028878;28;20197;-60
2022/06/23 03:30:32;;;;;;;7.65;5.47;;;;;;;;;;5029109;28;20569;-59
2022/06/23 03:33:03;;;;;;;5.88;5.38;;;;;;;;;;5028444;28;20224;-60
2022/06/23 03:35:36;;;;;;;9.00;5.57;;;;;;;;;;5027413;28;20205;-60
2022/06/23 03:38:07;;;;;;;11.32;6.10;;;;;;;;;;5027693;28;20197;-59
2022/06/23 03:43:28;;;;;;;11.20;6.03;;;;;;;;;;5027452;28;20681;-59
2022/06/23 03:45:59;;;;;;;7.10;5.32;;;;;;;;;;5028269;28;20683;-59
2022/06/23 03:48:30;;;;;;;6.10;5.50;;;;;;;;;;5028738;28;20200;-59
2022/06/23 03:50:59;;;;;;;8.13;5.65;;;;;;;;;;5027330;28;20223;-59
2022/06/23 03:53:28;;;;;;;6.07;4.80;;;;;;;;;;5028238;28;20228;-59
2022/06/23 03:55:57;;;;;;;6.32;5.70;;;;;;;;;;5028377;28;20209;-59
2022/06/23 03:58:26;;;;;;;7.45;5.07;;;;;;;;;;5028132;28;20203;-59
2022/06/23 04:01:00;;;;;;;9.80;5.15;;;;;;;;;;5026444;28;20576;-59
2022/06/23 04:03:30;;;;;;;7.57;5.35;;;;;;;;;;5026708;28;20200;-59
2022/06/23 04:06:18;;;;;;;8.05;4.47;;;;;;;;;;5027786;28;20212;-59
2022/06/23 04:08:48;;;;;;;8.05;4.93;;;;;;;;;;5027584;28;20196;-60
2022/06/23 04:14:03;;;;;;;9.75;5.35;;;;;;;;;;5027613;28;20844;-61
2022/06/23 04:16:32;;;;;;;7.63;5.35;;;;;;;;;;5028227;28;20208;-60
2022/06/23 04:19:00;;;;;;;10.05;5.60;;;;;;;;;;5027552;28;20205;-60
2022/06/23 04:21:29;;;;;;;6.55;5.53;;;;;;;;;;5027411;28;20223;-60
2022/06/23 04:23:58;;;;;;;6.03;5.05;;;;;;;;;;5028281;28;20200;-60
2022/06/23 04:26:29;;;;;;;7.78;5.60;;;;;;;;;;5027025;28;20236;-60
2022/06/23 04:28:58;;;;;;;6.38;5.75;;;;;;;;;;5027962;28;20205;-60
2022/06/23 04:31:26;;;;;;;10.15;6.15;;;;;;;;;;5028261;28;20200;-60
2022/06/23 04:33:56;;;;;;;11.20;6.30;;;;;;;;;;5027473;28;20955;-60
2022/06/23 04:36:24;;;;;;;8.40;6.22;;;;;;;;;;5026483;28;20205;-60
2022/06/23 04:38:53;;;;;;;7.68;5.75;;;;;;;;;;5027521;28;20675;-60
2022/06/23 04:41:22;;;;;;;9.32;5.57;;;;;;;;;;5027235;28;20663;-60
2022/06/23 04:43:50;;;;;;;10.95;5.65;;;;;;;;;;5028942;28;20218;-60
2022/06/23 04:46:18;;;;;;;10.30;5.68;;;;;;;;;;5028616;28;20204;-60
2022/06/23 04:48:50;;;;;;;9.57;4.68;;;;;;;;;;5025966;28;20212;-62
2022/06/23 04:51:22;;;;;;;9.30;6.28;;;;;;;;;;5026368;28;20200;-60
2022/06/23 04:53:53;;;;;;;12.13;7.55;;;;;;;;;;5027788;28;20228;-60
2022/06/23 04:56:25;;;;;;;8.10;6.05;;;;;;;;;;5031248;28;20258;-60
2022/06/23 04:58:53;;;;;;;9.93;5.72;;;;;;;;;;5030721;28;20228;-61
2022/06/23 05:01:23;;;;;;;8.25;6.50;;;;;;;;;;5030346;28;20266;-60
2022/06/23 05:03:52;;;;;;;14.10;6.57;;;;;;;;;;5032977;28;20356;-60
2022/06/23 05:06:23;;;;;;;9.32;6.07;;;;;;;;;;5031516;28;20208;-61
2022/06/23 05:08:50;;;;;;;9.23;5.72;;;;;;;;;;5028958;28;20946;-60
2022/06/23 05:11:19;;;;;;;8.18;5.88;;;;;;;;;;5031982;28;20211;-61
2022/06/23 05:13:49;;;;;;;14.95;6.25;;;;;;;;;;5032044;28;20228;-61
2022/06/23 05:16:20;;;;;;;10.10;6.53;;;;;;;;;;5032844;28;20211;-60
2022/06/23 05:18:49;;;;;;;11.57;6.00;;;;;;;;;;5032274;28;20773;-58
2022/06/23 05:21:19;;;;;;;9.90;6.53;;;;;;;;;;5031232;28;20216;-57
2022/06/23 05:23:50;;;;;;;6.22;5.60;;;;;;;;;;5030900;28;20200;-58
2022/06/23 05:26:26;;;;;;;13.00;6.10;;;;;;;;;;5031592;28;20322;-58
2022/06/23 05:28:56;;;;;;;9.25;6.40;;;;;;;;;;5030786;28;20208;-59
2022/06/23 05:31:27;;;;;;;9.02;6.63;;;;;;;;;;5028369;28;20208;-59
2022/06/23 05:33:55;;;;;;;10.70;7.22;;;;;;;;;;5032184;28;20267;-59
2022/06/23 05:36:24;;;;;;;7.20;6.50;;;;;;;;;;5025252;28;20212;-58
2022/06/23 05:38:55;;;;;;;7.57;5.60;;;;;;;;;;5038762;28;20209;-59
2022/06/23 05:41:25;;;;;;;11.00;6.93;;;;;;;;;;5035911;28;20250;-60
2022/06/23 05:43:54;;;;;;;10.63;5.95;;;;;;;;;;5034203;28;20671;-60
2022/06/23 05:46:22;;;;;;;8.10;6.13;;;;;;;;;;5032348;28;20212;-58
2022/06/23 05:48:56;;;;;;;7.50;5.43;;;;;;;;;;5031764;28;20210;-58
2022/06/23 05:51:27;;;;;;;9.10;6.53;;;;;;;;;;5031002;28;20200;-58
2022/06/23 05:54:00;;;;;;;8.38;5.85;;;;;;;;;;5031774;28;20235;-58
2022/06/23 05:56:29;;;;;;;8.65;5.95;;;;;;;;;;5031604;28;20243;-59
2022/06/23 05:58:59;;;;;;;8.75;5.80;;;;;;;;;;5031897;28;20641;-58
2022/06/23 06:01:30;;;;;;;6.32;5.07;;;;;;;;;;5032305;28;20223;-60
2022/06/23 06:04:00;;;;;;;6.65;5.90;;;;;;;;;;5031883;28;20620;-60
2022/06/23 06:06:27;;;;;;;6.55;5.38;;;;;;;;;;5030642;28;20228;-60
2022/06/23 06:11:45;;;;;;;8.07;5.55;;;;;;;;;;5025746;28;20589;-60
2022/06/23 06:14:13;;;;;;;6.88;5.63;;;;;;;;;;5031562;28;20243;-59
2022/06/23 06:16:40;;;;;;;11.60;5.45;;;;;;;;;;5031797;28;20219;-60
2022/06/23 06:19:07;;;;;;;9.07;5.40;;;;;;;;;;5029370;28;20208;-59
2022/06/23 06:21:35;;;;;;;5.38;4.97;;;;;;;;;;5030517;28;20231;-60
2022/06/23 06:24:04;;;;;;;8.32;5.13;;;;;;;;;;5028421;28;20835;-59
2022/06/23 06:26:32;;;;;;;9.27;4.90;;;;;;;;;;5027975;28;20251;-59
2022/06/23 06:29:14;;;;;;;6.18;5.60;;;;;;;;;;5022314;28;20213;-59
2022/06/23 06:31:44;;;;;;;6.55;5.75;;;;;;;;;;5031680;28;20291;-60
2022/06/23 06:34:15;;;;;;;10.75;5.53;;;;;;;;;;5031523;28;20235;-60
2022/06/23 06:36:43;;;;;;;6.57;5.43;;;;;;;;;;5019263;28;20226;-58
2022/06/23 06:39:11;;;;;;;7.70;5.47;;;;;;;;;;5010865;28;20608;-58
2022/06/23 06:41:40;;;;;;;7.22;5.18;;;;;;;;;;5010799;28;20217;-59
2022/06/23 06:44:10;;;;;;;7.97;5.63;;;;;;;;;;5017757;28;20216;-59
2022/06/23 06:46:38;;;;;;;10.18;6.88;;;;;;;;;;5029975;28;20212;-58
2022/06/23 06:49:05;;;;;;;11.68;7.72;;;;;;;;;;5029770;28;20262;-58
2022/06/23 06:51:32;;;;;;;10.93;6.97;;;;;;;;;;5029412;28;20208;-57
2022/06/23 06:54:01;;;;;;;9.30;7.07;;;;;;;;;;5024397;28;20741;-57
2022/06/23 06:56:31;;;;;;;10.07;6.82;;;;;;;;;;5029894;28;20583;-58
2022/06/23 06:59:02;;;;;;;9.68;6.97;;;;;;;;;;5029560;28;20217;-58
2022/06/23 07:01:31;;;;;;;11.93;8.30;;;;;;;;;;5030123;28;20212;-59
2022/06/23 07:04:00;;;;;;;10.35;7.55;;;;;;;;;;5029124;28;20283;-56
2022/06/23 07:06:32;;;;;;;8.07;7.28;;;;;;;;;;5029964;28;20234;-58
2022/06/23 07:09:03;;;;;;;11.00;7.05;;;;;;;;;;5029692;28;20200;-58
2022/06/23 07:11:31;;;;;;;6.63;5.93;;;;;;;;;;5010989;28;20205;-59
2022/06/23 07:14:01;;;;;;;7.32;6.28;;;;;;;;;;5015924;28;20243;-62
2022/06/23 07:16:31;;;;;;;8.50;6.60;;;;;;;;;;5029395;28;20212;-59
2022/06/23 07:19:03;;;;;;;7.30;6.60;;;;;;;;;;5029062;28;20231;-59
2022/06/23 07:21:34;;;;;;;8.65;6.93;;;;;;;;;;5029519;28;20208;-59
2022/06/23 07:24:05;;;;;;;7.18;6.53;;;;;;;;;;5029730;28;20219;-60
2022/06/23 07:26:37;;;;;;;7.28;6.30;;;;;;;;;;5028906;28;20306;-60
2022/06/23 07:29:19;;;;;;;6.88;5.45;;;;;;;;;;5029336;28;20216;-59
2022/06/23 07:31:54;;;;;;;9.05;6.40;;;;;;;;;;5029201;28;20453;-59
2022/06/23 07:34:24;;;;;;;11.00;6.65;;;;;;;;;;5015006;28;20363;-59
2022/06/23 07:36:54;;;;;;;7.25;5.80;;;;;;;;;;5009690;28;20201;-61
2022/06/23 07:39:22;;;;;;;8.55;6.05;;;;;;;;;;5025607;28;20208;-61
2022/06/23 07:41:53;;;;;;;6.45;5.05;;;;;;;;;;5028879;28;20266;-64
2022/06/23 07:44:22;;;;;;;8.85;5.22;;;;;;;;;;5029238;28;20216;-62
2022/06/23 07:46:49;;;;;;;8.75;5.90;;;;;;;;;;5028838;28;20204;-62
2022/06/23 07:49:16;;;;;;;7.78;5.85;;;;;;;;;;5028910;28;20824;-62
2022/06/23 07:51:45;;;;;;;6.93;5.30;;;;;;;;;;5028671;28;20224;-58
2022/06/23 07:54:16;;;;;;;5.00;4.60;;;;;;;;;;5029112;28;20235;-59
2022/06/23 07:56:43;;;;;;;6.43;5.40;;;;;;;;;;5027524;28;20208;-60
2022/06/23 07:59:12;;;;;;;7.60;5.30;;;;;;;;;;5028729;28;20211;-60
2022/06/23 08:01:41;;;;;;;6.70;5.53;;;;;;;;;;5027862;28;20757;-61
2022/06/23 08:04:13;;;;;;;8.95;5.65;;;;;;;;;;5028144;28;20200;-61
2022/06/23 08:06:40;;;;;;;7.53;5.43;;;;;;;;;;5027361;28;20213;-59
2022/06/23 08:09:12;;;;;;;9.57;5.60;;;;;;;;;;5028496;28;20505;-61
2022/06/23 08:14:27;;;;;;;7.53;5.43;;;;;;;;;;5027969;28;20235;-63
2022/06/23 08:16:53;;;;;;;8.45;5.57;;;;;;;;;;5029078;28;20208;-65
2022/06/23 08:19:29;;;;;;;5.25;4.80;;;;;;;;;;5028313;28;20235;-67
2022/06/23 08:21:58;;;;;;;6.68;4.78;;;;;;;;;;5028289;28;21117;-62
2022/06/23 08:24:26;;;;;;;5.50;4.80;;;;;;;;;;5028465;28;20663;-61
2022/06/23 08:26:55;;;;;;;5.57;5.13;;;;;;;;;;5028469;28;20266;-64
2022/06/23 08:29:25;;;;;;;8.10;4.70;;;;;;;;;;5028186;28;20738;-59
2022/06/23 08:31:52;;;;;;;6.95;5.03;;;;;;;;;;5027981;28;20204;-60
2022/06/23 08:34:19;;;;;;;6.65;4.72;;;;;;;;;;5027965;28;20583;-59
2022/06/23 08:36:47;;;;;;;6.38;5.18;;;;;;;;;;5020322;28;20591;-60
2022/06/23 08:39:16;;;;;;;7.10;4.80;;;;;;;;;;5024087;28;20227;-60
2022/06/23 08:41:47;;;;;;;5.32;4.78;;;;;;;;;;5027730;28;20274;-60
2022/06/23 08:44:20;;;;;;;5.18;4.57;;;;;;;;;;5027840;28;20212;-60
2022/06/23 08:46:50;;;;;;;6.43;4.32;;;;;;;;;;5023044;28;20714;-60
2022/06/23 08:49:21;;;;;;;6.10;4.38;;;;;;;;;;5017341;28;20726;-60
2022/06/23 08:51:56;;;;;;;5.25;4.85;;;;;;;;;;5009945;28;20213;-60
2022/06/23 08:54:27;;;;;;;6.95;4.85;;;;;;;;;;5018955;28;20732;-60
2022/06/23 08:57:03;;;;;;;7.22;4.93;;;;;;;;;;5016540;28;20216;-60
2022/06/23 08:59:36;;;;;;;6.25;5.50;;;;;;;;;;5027746;28;20708;-60
2022/06/23 09:02:09;;;;;;;5.75;5.05;;;;;;;;;;5027651;28;20299;-60
2022/06/23 09:04:40;;;;;;;5.97;5.03;;;;;;;;;;5023745;28;20208;-60
2022/06/23 09:07:12;;;;;;;6.70;4.45;;;;;;;;;;5018304;28;20220;-60
2022/06/23 09:09:43;;;;;;;4.50;4.15;;;;;;;;;;5028246;28;20208;-60
2022/06/23 09:12:17;;;;;;;6.00;5.40;;;;;;;;;;5018511;28;20266;-61
2022/06/23 09:15:02;;;;;;;5.13;4.63;;;;;;;;;;5020589;28;20228;-61
2022/06/23 09:17:41;;;;;;;6.65;5.13;;;;;;;;;;5015677;28;20215;-60
2022/06/23 09:20:21;;;;;;;6.13;5.30;;;;;;;;;;5024222;28;20550;-60
2022/06/23 09:23:01;;;;;;;6.40;5.07;;;;;;;;;;5027766;28;20212;-60
2022/06/23 09:25:33;;;;;;;5.75;4.60;;;;;;;;;;5028160;28;20630;-60
2022/06/23 09:28:08;;;;;;;5.32;4.80;;;;;;;;;;5027593;28;20204;-60
2022/06/23 09:30:38;;;;;;;9.60;4.70;;;;;;;;;;5027639;28;20208;-60
2022/06/23 09:33:12;;;;;;;6.03;5.13;;;;;;;;;;5011554;28;20731;-60
2022/06/23 09:36:07;;;;;;;12.35;4.97;;;;;;;;;;5008371;28;20244;-60
2022/06/23 09:38:48;;;;;;;8.45;5.00;;;;;;;;;;5008454;28;20630;-60
2022/06/23 09:41:23;;;;;;;6.70;4.80;;;;;;;;;;5014646;28;20228;-61
2022/06/23 09:43:59;;;;;;;6.43;5.10;;;;;;;;;;5016791;28;20270;-61
2022/06/23 09:46:40;;;;;;;5.43;4.88;;;;;;;;;;5012687;28;20777;-60
2022/06/23 09:49:21;;;;;;;7.22;5.75;;;;;;;;;;5013138;28;20738;-66
2022/06/23 09:52:06;;;;;;;6.72;5.32;;;;;;;;;;5010262;28;20617;-68
2022/06/23 09:54:43;;;;;;;6.03;5.47;;;;;;;;;;5003563;28;20613;-67
2022/06/23 09:57:26;;;;;;;6.45;5.22;;;;;;;;;;5018580;28;20203;-66
2022/06/23 10:00:02;;;;;;;6.13;5.38;;;;;;;;;;5024570;28;20208;-66
2022/06/23 10:02:47;;;;;;;7.20;5.03;;;;;;;;;;5023820;28;20208;-66
2022/06/23 10:05:20;;;;;;;9.40;5.57;;;;;;;;;;5029739;28;20227;-67
2022/06/23 10:07:53;;;;;;;6.22;5.50;;;;;;;;;;5019458;28;20205;-64
2022/06/23 10:10:28;;;;;;;5.78;4.93;;;;;;;;;;5010714;28;20213;-67
2022/06/23 10:13:05;;;;;;;8.13;5.15;;;;;;;;;;5029714;28;20290;-67
2022/06/23 10:15:42;;;;;;;6.65;5.00;;;;;;;;;;5031028;28;20800;-67
2022/06/23 10:18:16;;;;;;;7.18;4.68;;;;;;;;;;5016260;28;20717;-68
2022/06/23 10:20:48;;;;;;;5.93;5.35;;;;;;;;;;5015631;28;20304;-67
2022/06/23 10:23:20;;;;;;;6.20;5.43;;;;;;;;;;5025554;28;20609;-73
2022/06/23 10:25:54;;;;;;;6.78;5.60;;;;;;;;;;5031009;28;20223;-67
2022/06/23 10:28:28;;;;;;;6.28;5.75;;;;;;;;;;5025011;28;20201;-68
2022/06/23 10:30:59;;;;;;;5.95;5.15;;;;;;;;;;5012056;28;20211;-69
2022/06/23 10:33:44;;;;;;;7.78;5.20;;;;;;;;;;5012061;28;20212;-69
2022/06/23 10:36:27;;;;;;;9.95;5.70;;;;;;;;;;5011884;28;20232;-69
2022/06/23 10:39:00;;;;;;;9.27;5.50;;;;;;;;;;5011362;28;20296;-68
2022/06/23 10:41:31;;;;;;;6.32;5.82;;;;;;;;;;5024390;28;20220;-68
2022/06/23 10:44:05;;;;;;;7.38;5.22;;;;;;;;;;5016697;28;20311;-68
2022/06/23 10:46:38;;;;;;;6.10;5.50;;;;;;;;;;5026367;28;20801;-68
2022/06/23 10:49:17;;;;;;;7.03;5.20;;;;;;;;;;5016144;28;20216;-68
2022/06/23 10:51:54;;;;;;;5.82;5.32;;;;;;;;;;5029596;28;20216;-68
2022/06/23 10:54:27;;;;;;;6.82;5.88;;;;;;;;;;5030055;28;20216;-68
2022/06/23 10:57:01;;;;;;;6.13;5.60;;;;;;;;;;5030072;28;20219;-69
2022/06/23 10:59:35;;;;;;;6.78;5.70;;;;;;;;;;5029689;28;20216;-68
2022/06/23 11:02:15;;;;;;;9.20;6.05;;;;;;;;;;5029522;28;20207;-67
2022/06/23 11:04:51;;;;;;;6.05;5.47;;;;;;;;;;5027227;28;20208;-67
2022/06/23 11:07:24;;;;;;;10.05;5.53;;;;;;;;;;5023495;28;20201;-66
2022/06/23 11:09:59;;;;;;;5.57;5.07;;;;;;;;;;5028513;28;20295;-67
2022/06/23 11:12:33;;;;;;;10.98;6.00;;;;;;;;;;5023609;28;20239;-64
2022/06/23 11:15:07;;;;;;;5.82;5.32;;;;;;;;;;5023306;28;20231;-64
2022/06/23 11:17:44;;;;;;;7.53;5.20;;;;;;;;;;5032727;28;20862;-63
2022/06/23 11:20:18;;;;;;;7.57;5.53;;;;;;;;;;5025403;28;20254;-63
2022/06/23 11:22:48;;;;;;;6.43;5.70;;;;;;;;;;5013581;28;20208;-64
2022/06/23 11:25:21;;;;;;;8.00;5.78;;;;;;;;;;5027293;28;20211;-64
2022/06/23 11:27:52;;;;;;;7.78;5.80;;;;;;;;;;5024977;28;20231;-64
2022/06/23 11:30:24;;;;;;;8.18;5.80;;;;;;;;;;5021799;28;20200;-64
2022/06/23 11:33:09;;;;;;;7.60;5.20;;;;;;;;;;5029024;28;20204;-64
2022/06/23 11:35:48;;;;;;;5.88;5.35;;;;;;;;;;4987282;28;20255;-72
2022/06/23 11:38:24;;;;;;;7.40;4.93;;;;;;;;;;5028686;28;20210;-65
2022/06/23 11:40:57;;;;;;;4.90;4.53;;;;;;;;;;5027742;28;20298;-68
2022/06/23 11:43:25;;;;;;;6.00;5.40;;;;;;;;;;5027353;28;20200;-67
2022/06/23 11:46:01;;;;;;;5.30;4.80;;;;;;;;;;5027888;28;20200;-66
2022/06/23 11:48:38;;;;;;;5.80;5.05;;;;;;;;;;5018732;28;20218;-68
2022/06/23 11:51:12;;;;;;;6.43;5.15;;;;;;;;;;5025519;28;20214;-69
2022/06/23 11:53:53;;;;;;;6.22;5.07;;;;;;;;;;5027209;28;20212;-67
2022/06/23 11:56:24;;;;;;;6.07;4.82;;;;;;;;;;5026179;28;20239;-64
2022/06/23 11:59:00;;;;;;;5.70;5.20;;;;;;;;;;5020302;28;20902;-65
2022/06/23 12:01:28;;;;;;;5.95;5.22;;;;;;;;;;5023867;28;20215;-65
2022/06/23 12:04:19;;;;;;;8.00;5.20;;;;;;;;;;5026719;28;20223;-65
2022/06/23 12:06:56;;;;;;;6.90;4.75;;;;;;;;;;5013088;28;20210;-65
2022/06/23 12:09:28;;;;;;;8.35;5.35;;;;;;;;;;5020793;28;20262;-65
2022/06/23 12:11:56;;;;;;;7.13;5.20;;;;;;;;;;5029391;28;20211;-65
2022/06/23 12:14:23;;;;;;;5.10;4.65;;;;;;;;;;5028152;28;20204;-64
2022/06/23 12:16:54;;;;;;;7.25;5.20;;;;;;;;;;5028426;28;20769;-65
2022/06/23 12:19:22;;;;;;;8.38;4.97;;;;;;;;;;5032398;28;20210;-66
2022/06/23 12:21:53;;;;;;;7.70;5.43;;;;;;;;;;5028624;28;20207;-66
2022/06/23 12:24:26;;;;;;;6.80;4.90;;;;;;;;;;5021942;28;20207;-66
2022/06/23 12:26:57;;;;;;;5.32;4.55;;;;;;;;;;5029185;28;20239;-67
2022/06/23 12:29:27;;;;;;;5.20;4.22;;;;;;;;;;5026846;28;20654;-65
2022/06/23 12:31:58;;;;;;;5.07;4.45;;;;;;;;;;5018561;28;20619;-64
2022/06/23 12:34:29;;;;;;;5.00;4.30;;;;;;;;;;5024797;28;20210;-63
2022/06/23 12:37:01;;;;;;;4.50;4.10;;;;;;;;;;5028251;28;20235;-64
2022/06/23 12:39:34;;;;;;;4.35;3.95;;;;;;;;;;5028580;28;20211;-66
2022/06/23 12:42:04;;;;;;;4.10;3.80;;;;;;;;;;5028071;28;20538;-73
2022/06/23 12:44:37;;;;;;;9.90;4.50;;;;;;;;;;5023401;28;20210;-66
2022/06/23 12:47:11;;;;;;;8.60;4.43;;;;;;;;;;5025667;28;20201;-66
2022/06/23 12:49:45;;;;;;;6.03;3.90;;;;;;;;;;5018903;28;20212;-66
2022/06/23 12:52:19;;;;;;;5.78;3.85;;;;;;;;;;5032918;28;20239;-66
2022/06/23 12:54:54;;;;;;;5.32;4.80;;;;;;;;;;5027333;28;20580;-65
2022/06/23 12:57:28;;;;;;;6.43;3.80;;;;;;;;;;5028443;28;20207;-65
2022/06/23 13:00:00;;;;;;;4.47;3.30;;;;;;;;;;5028237;28;20728;-68
2022/06/23 13:02:28;;;;;;;5.35;4.28;;;;;;;;;;5027830;28;20219;-65
2022/06/23 13:04:59;;;;;;;5.88;5.38;;;;;;;;;;5017415;28;20223;-64
2022/06/23 13:07:28;;;;;;;6.93;5.50;;;;;;;;;;5032443;28;20211;-65
2022/06/23 13:10:00;;;;;;;5.30;3.90;;;;;;;;;;5026689;28;20218;-67
2022/06/23 13:12:30;;;;;;;6.63;4.00;;;;;;;;;;5028079;28;20215;-65
2022/06/23 13:15:01;;;;;;;5.32;3.80;;;;;;;;;;5023581;28;20223;-68
2022/06/23 13:17:33;;;;;;;5.20;3.60;;;;;;;;;;5024055;28;20216;-67
2022/06/23 13:20:03;;;;;;;7.80;3.95;;;;;;;;;;5030998;28;20215;-66
2022/06/23 13:22:31;;;;;;;4.78;3.35;;;;;;;;;;5031874;28;20231;-65
2022/06/23 13:24:59;;;;;;;4.30;2.80;;;;;;;;;;5026586;28;20207;-66
2022/06/23 13:27:29;;;;;;;4.03;3.25;;;;;;;;;;5023250;28;20239;-66
2022/06/23 13:29:59;;;;;;;3.58;3.25;;;;;;;;;;5021297;28;20220;-66
2022/06/23 13:32:28;;;;;;;3.30;3.10;;;;;;;;;;5025327;28;20212;-66
2022/06/23 13:34:59;;;;;;;5.28;3.80;;;;;;;;;;5020404;28;20219;-71
2022/06/23 13:37:30;;;;;;;4.35;4.05;;;;;;;;;;5021332;28;20253;-66
2022/06/23 13:40:00;;;;;;;6.45;3.83;;;;;;;;;;5029557;28;20210;-67
2022/06/23 13:42:32;;;;;;;3.70;3.45;;;;;;;;;;5022815;28;20220;-65
2022/06/23 13:45:02;;;;;;;5.47;3.25;;;;;;;;;;5026252;28;20216;-65
2022/06/23 13:47:31;;;;;;;3.60;3.38;;;;;;;;;;5032590;28;20215;-64
2022/06/23 13:50:00;;;;;;;6.38;2.83;;;;;;;;;;5030274;28;20213;-66
2022/06/23 13:52:32;;;;;;;3.80;3.50;;;;;;;;;;5031580;28;20208;-66
2022/06/23 13:55:03;;;;;;;4.32;3.40;;;;;;;;;;5013979;28;20205;-71
2022/06/23 13:57:34;;;;;;;4.82;3.10;;;;;;;;;;5031198;28;20243;-72
2022/06/23 14:00:04;;;;;;;3.92;3.30;;;;;;;;;;5030721;28;20204;-73
2022/06/23 14:02:35;;;;;;;8.52;3.20;;;;;;;;;;5034001;28;20218;-67
2022/06/23 14:05:07;;;;;;;5.28;2.58;;;;;;;;;;5016250;28;20240;-68
2022/06/23 14:07:40;;;;;;;2.28;2.13;;;;;;;;;;5031837;28;20200;-68
2022/06/23 14:10:09;;;;;;;4.43;2.97;;;;;;;;;;5031194;28;20844;-65
2022/06/23 14:12:45;;;;;;;2.80;2.50;;;;;;;;;;5030690;28;20211;-66
2022/06/23 14:15:15;;;;;;;3.08;2.85;;;;;;;;;;5026367;28;20211;-66
2022/06/23 14:17:47;;;;;;;2.83;2.63;;;;;;;;;;5030762;28;20564;-65
2022/06/23 14:20:19;;;;;;;2.90;2.72;;;;;;;;;;5031107;28;20216;-65
2022/06/23 14:22:49;;;;;;;2.85;2.65;;;;;;;;;;5031136;28;20286;-65
2022/06/23 14:25:21;;;;;;;3.08;2.78;;;;;;;;;;5031092;28;20208;-65
2022/06/23 14:27:54;;;;;;;4.85;2.90;;;;;;;;;;5019803;28;20231;-75
2022/06/23 14:30:23;;;;;;;4.97;2.78;;;;;;;;;;5029430;28;20606;-63
2022/06/23 14:32:54;;;;;;;7.82;3.28;;;;;;;;;;5029924;28;20204;-66
2022/06/23 14:35:23;;;;;;;4.20;2.88;;;;;;;;;;5030181;28;20231;-65
2022/06/23 14:37:55;;;;;;;3.85;2.70;;;;;;;;;;5027360;28;20208;-66
2022/06/23 14:40:27;;;;;;;3.35;2.97;;;;;;;;;;5026646;28;20246;-65
2022/06/23 14:43:01;;;;;;;5.03;3.25;;;;;;;;;;5029264;28;20265;-68
2022/06/23 14:45:46;;;;;;;4.35;2.70;;;;;;;;;;5027636;28;20207;-66
2022/06/23 14:48:24;;;;;;;3.55;2.25;;;;;;;;;;5029511;28;20261;-64
2022/06/23 14:50:55;;;;;;;5.40;2.55;;;;;;;;;;5026605;28;20233;-70
2022/06/23 14:53:27;;;;;;;3.42;2.38;;;;;;;;;;5029378;28;20207;-66
2022/06/23 14:56:03;;;;;;;2.65;2.47;;;;;;;;;;5029733;28;20231;-70
2022/06/23 14:58:36;;;;;;;7.95;3.03;;;;;;;;;;5028970;28;20207;-72
2022/06/23 15:01:07;;;;;;;4.55;2.78;;;;;;;;;;5025059;28;20209;-64
2022/06/23 15:03:40;;;;;;;2.75;2.55;;;;;;;;;;5026506;28;20223;-67
2022/06/23 15:06:13;;;;;;;3.63;3.20;;;;;;;;;;5021652;28;20195;-62
2022/06/23 15:08:45;;;;;;;2.83;2.60;;;;;;;;;;5027933;28;20212;-63
2022/06/23 15:11:14;;;;;;;2.55;2.45;;;;;;;;;;5029251;28;20685;-65
2022/06/23 15:13:44;;;;;;;2.30;2.20;;;;;;;;;;5027272;28;20215;-66
2022/06/23 15:16:13;;;;;;;17.75;5.47;;;;;;;;;;5028274;28;20239;-70
2022/06/23 15:18:48;;;;;;;5.45;1.90;;;;;;;;;;5026369;28;20215;-64